Time;durP1;ratioP1;P1;durP2;ratioP2;P2;SDS_P1;SDS_P2;PMS_P1;PMS_P2;Temp;Humidity;BMP_temperature;BMP_pressure;BME280_temperature;BME280_humidity;BME280_pressure;Samples;Min_cycle;Max_cycle;Signal;HPM_P1;HPM_P2
2023/02/05 00:03:07;;;;;;;12.77;10.02;;;;;;;;;;10337791;28;20071;-67
2023/02/05 00:08:07;;;;;;;13.75;9.88;;;;;;;;;;10335935;28;20110;-67
2023/02/05 00:13:07;;;;;;;10.70;9.32;;;;;;;;;;10336680;28;20090;-67
2023/02/05 00:18:05;;;;;;;12.55;10.77;;;;;;;;;;10337254;28;20078;-67
2023/02/05 00:23:04;;;;;;;10.23;9.32;;;;;;;;;;10330960;28;20071;-67
2023/02/05 00:28:03;;;;;;;12.13;9.18;;;;;;;;;;10334300;28;20075;-68
2023/02/05 00:33:02;;;;;;;18.38;14.48;;;;;;;;;;10332680;28;20083;-68
2023/02/05 00:38:00;;;;;;;10.52;9.27;;;;;;;;;;10315074;28;20493;-68
2023/02/05 00:42:58;;;;;;;10.02;7.78;;;;;;;;;;10333137;28;20079;-68
2023/02/05 00:47:57;;;;;;;9.02;8.13;;;;;;;;;;10333314;28;20075;-67
2023/02/05 00:52:56;;;;;;;9.63;8.68;;;;;;;;;;10323010;28;20458;-69
2023/02/05 00:57:54;;;;;;;8.02;7.18;;;;;;;;;;10334556;28;20075;-67
2023/02/05 01:02:53;;;;;;;7.50;6.80;;;;;;;;;;10331918;28;20072;-67
2023/02/05 01:07:52;;;;;;;7.20;6.50;;;;;;;;;;10333042;28;20076;-67
2023/02/05 01:12:51;;;;;;;7.28;6.47;;;;;;;;;;10326407;28;20087;-67
2023/02/05 01:17:49;;;;;;;7.90;6.78;;;;;;;;;;10331657;28;20072;-67
2023/02/05 01:22:48;;;;;;;6.78;6.13;;;;;;;;;;10314023;28;20115;-67
2023/02/05 01:27:47;;;;;;;7.40;6.65;;;;;;;;;;10331872;28;20086;-67
2023/02/05 01:32:46;;;;;;;6.15;5.65;;;;;;;;;;10330841;28;20095;-68
2023/02/05 01:37:45;;;;;;;7.68;6.20;;;;;;;;;;10330311;28;20086;-67
2023/02/05 01:42:43;;;;;;;7.10;5.75;;;;;;;;;;10332552;28;20068;-67
2023/02/05 01:47:42;;;;;;;9.25;6.72;;;;;;;;;;10332053;28;20076;-68
2023/02/05 01:52:41;;;;;;;7.20;6.10;;;;;;;;;;10332515;28;20071;-67
2023/02/05 01:57:39;;;;;;;6.65;5.47;;;;;;;;;;10313097;28;20083;-67
2023/02/05 02:02:38;;;;;;;6.18;5.57;;;;;;;;;;10312458;28;20076;-68
2023/02/05 02:07:37;;;;;;;5.15;4.75;;;;;;;;;;10329949;28;20551;-67
2023/02/05 02:12:37;;;;;;;6.10;5.60;;;;;;;;;;10324200;28;20075;-68
2023/02/05 02:17:38;;;;;;;5.93;5.32;;;;;;;;;;10309095;28;20063;-67
2023/02/05 02:22:57;;;;;;;7.65;5.15;;;;;;;;;;10323994;28;20149;-67
2023/02/05 02:27:59;;;;;;;6.85;5.63;;;;;;;;;;10320983;28;20075;-68
2023/02/05 02:33:00;;;;;;;6.10;5.47;;;;;;;;;;10328841;28;20091;-68
2023/02/05 02:38:01;;;;;;;7.55;5.28;;;;;;;;;;10328516;28;20072;-68
2023/02/05 02:43:04;;;;;;;5.53;5.03;;;;;;;;;;10330304;28;20071;-67
2023/02/05 02:48:03;;;;;;;6.35;5.75;;;;;;;;;;10327284;28;20474;-67
2023/02/05 02:53:03;;;;;;;6.00;5.40;;;;;;;;;;10311021;28;20048;-68
2023/02/05 02:58:04;;;;;;;5.25;4.75;;;;;;;;;;10330377;28;20500;-68
2023/02/05 03:03:05;;;;;;;6.63;5.90;;;;;;;;;;10327611;28;20098;-68
2023/02/05 03:08:06;;;;;;;6.53;5.43;;;;;;;;;;10329954;28;20498;-68
2023/02/05 03:13:05;;;;;;;11.32;6.97;;;;;;;;;;10321961;28;20068;-68
2023/02/05 03:18:04;;;;;;;5.80;5.30;;;;;;;;;;10324431;28;20501;-68
2023/02/05 03:23:03;;;;;;;6.90;5.30;;;;;;;;;;10328426;28;20735;-68
2023/02/05 03:28:01;;;;;;;6.07;5.28;;;;;;;;;;10329709;28;20088;-67
2023/02/05 03:33:08;;;;;;;5.18;4.68;;;;;;;;;;10326596;28;20076;-68
2023/02/05 03:38:15;;;;;;;5.47;4.97;;;;;;;;;;10336639;28;20075;-67
2023/02/05 03:43:18;;;;;;;5.80;5.10;;;;;;;;;;10326118;28;20032;-68
2023/02/05 03:48:30;;;;;;;7.55;6.72;;;;;;;;;;10334687;28;20076;-68
2023/02/05 03:53:33;;;;;;;7.75;6.15;;;;;;;;;;10320327;28;20052;-68
2023/02/05 03:58:33;;;;;;;4.68;4.20;;;;;;;;;;10318375;28;20437;-67
2023/02/05 04:03:34;;;;;;;5.10;4.55;;;;;;;;;;10316198;28;20045;-65
2023/02/05 04:08:33;;;;;;;4.78;4.25;;;;;;;;;;10335495;28;20067;-68
2023/02/05 04:13:31;;;;;;;5.43;4.50;;;;;;;;;;10333186;28;20083;-67
2023/02/05 04:18:30;;;;;;;7.40;4.82;;;;;;;;;;10318682;28;20425;-68
2023/02/05 04:23:32;;;;;;;7.30;6.60;;;;;;;;;;10333437;28;20088;-68
2023/02/05 04:28:31;;;;;;;5.20;4.63;;;;;;;;;;10332987;28;20076;-67
2023/02/05 04:33:32;;;;;;;5.20;4.60;;;;;;;;;;10332573;28;20091;-68
2023/02/05 04:38:33;;;;;;;7.55;5.43;;;;;;;;;;10315788;28;20052;-68
2023/02/05 04:43:31;;;;;;;4.95;4.45;;;;;;;;;;10333476;28;20079;-68
2023/02/05 04:48:29;;;;;;;4.93;4.55;;;;;;;;;;10331276;28;20090;-69
2023/02/05 04:53:27;;;;;;;6.65;6.05;;;;;;;;;;10333662;28;20064;-68
2023/02/05 04:58:27;;;;;;;6.75;5.53;;;;;;;;;;10330594;28;20533;-67
2023/02/05 05:03:25;;;;;;;6.63;5.90;;;;;;;;;;10333128;28;20102;-67
2023/02/05 05:08:23;;;;;;;5.63;4.60;;;;;;;;;;10332964;28;20079;-67
2023/02/05 05:13:21;;;;;;;6.35;4.70;;;;;;;;;;10327492;28;20068;-67
2023/02/05 05:18:21;;;;;;;5.38;4.88;;;;;;;;;;10327461;28;20076;-68
2023/02/05 05:23:19;;;;;;;5.20;4.65;;;;;;;;;;10327927;28;20064;-68
2023/02/05 05:28:17;;;;;;;5.28;4.78;;;;;;;;;;10331790;28;20505;-68
2023/02/05 05:33:15;;;;;;;36.85;14.45;;;;;;;;;;10332784;28;20072;-67
2023/02/05 05:38:15;;;;;;;5.80;5.25;;;;;;;;;;10321399;28;20525;-68
2023/02/05 05:48:30;;;;;;;6.00;5.38;;;;;;;;;;10330720;28;20076;-67
2023/02/05 05:53:29;;;;;;;6.40;5.47;;;;;;;;;;10331534;28;20128;-68
2023/02/05 05:58:27;;;;;;;5.45;4.95;;;;;;;;;;10330008;28;20470;-68
2023/02/05 06:03:26;;;;;;;7.50;6.80;;;;;;;;;;10329914;28;20079;-67
2023/02/05 06:08:24;;;;;;;15.82;10.85;;;;;;;;;;10330568;28;20083;-68
2023/02/05 06:13:23;;;;;;;6.22;5.63;;;;;;;;;;10326026;28;20072;-68
2023/02/05 06:18:22;;;;;;;8.32;7.47;;;;;;;;;;10332525;28;20087;-68
2023/02/05 06:23:21;;;;;;;6.38;5.75;;;;;;;;;;10321037;28;20068;-68
2023/02/05 06:28:19;;;;;;;10.50;6.45;;;;;;;;;;10329556;28;20151;-68
2023/02/05 06:33:18;;;;;;;11.43;9.50;;;;;;;;;;10325979;28;20083;-68
2023/02/05 06:38:17;;;;;;;6.28;5.10;;;;;;;;;;10332205;28;20087;-66
2023/02/05 06:43:15;;;;;;;8.63;6.20;;;;;;;;;;10328434;28;20157;-63
2023/02/05 06:48:13;;;;;;;12.35;9.25;;;;;;;;;;10326599;28;20067;-67
2023/02/05 06:53:13;;;;;;;13.10;11.35;;;;;;;;;;10327812;28;20068;-66
2023/02/05 06:58:11;;;;;;;8.50;7.13;;;;;;;;;;10328154;28;20461;-67
2023/02/05 07:03:09;;;;;;;12.85;9.77;;;;;;;;;;10340782;28;20071;-68
2023/02/05 07:08:07;;;;;;;18.77;11.60;;;;;;;;;;10340837;28;20090;-68
2023/02/05 07:13:07;;;;;;;14.63;10.25;;;;;;;;;;10332174;28;20075;-67
2023/02/05 07:18:05;;;;;;;12.95;9.73;;;;;;;;;;10331099;28;20068;-67
2023/02/05 07:23:04;;;;;;;13.63;10.02;;;;;;;;;;10334470;28;20068;-67
2023/02/05 07:28:02;;;;;;;18.60;13.32;;;;;;;;;;10335379;28;20072;-66
2023/02/05 07:33:03;;;;;;;17.90;12.82;;;;;;;;;;10338719;28;20092;-67
2023/02/05 07:38:01;;;;;;;28.73;14.95;;;;;;;;;;10334777;28;20075;-66
2023/02/05 07:42:59;;;;;;;28.55;15.13;;;;;;;;;;10333236;28;20092;-67
2023/02/05 07:47:58;;;;;;;27.80;16.23;;;;;;;;;;10335531;28;20071;-67
2023/02/05 07:52:57;;;;;;;14.75;10.85;;;;;;;;;;10336281;28;20068;-66
2023/02/05 07:57:55;;;;;;;29.23;19.73;;;;;;;;;;10334878;28;20068;-67
2023/02/05 08:02:54;;;;;;;16.30;10.52;;;;;;;;;;10336205;28;20072;-67
2023/02/05 08:07:52;;;;;;;18.75;10.05;;;;;;;;;;10332316;28;20508;-68
2023/02/05 08:12:51;;;;;;;17.27;10.68;;;;;;;;;;10333205;28;20076;-67
2023/02/05 08:17:49;;;;;;;15.82;9.07;;;;;;;;;;10336413;28;20075;-67
2023/02/05 08:22:48;;;;;;;13.95;8.75;;;;;;;;;;10333241;28;20072;-66
2023/02/05 08:27:46;;;;;;;13.23;10.60;;;;;;;;;;10337091;28;20104;-67
2023/02/05 08:32:48;;;;;;;13.50;9.75;;;;;;;;;;10334232;28;20087;-68
2023/02/05 08:37:46;;;;;;;11.60;8.68;;;;;;;;;;10336013;28;20078;-68
2023/02/05 08:42:45;;;;;;;14.18;10.27;;;;;;;;;;10336765;28;20068;-67
2023/02/05 08:47:43;;;;;;;9.40;7.85;;;;;;;;;;10332137;28;20075;-67
2023/02/05 08:52:43;;;;;;;12.35;7.15;;;;;;;;;;10334591;28;20338;-68
2023/02/05 08:57:41;;;;;;;10.40;7.43;;;;;;;;;;10336190;28;20075;-67
2023/02/05 09:02:40;;;;;;;16.63;9.38;;;;;;;;;;10331106;28;20513;-67
2023/02/05 09:07:39;;;;;;;9.18;6.88;;;;;;;;;;10332140;28;20082;-68
2023/02/05 09:12:39;;;;;;;17.42;10.05;;;;;;;;;;10332391;28;20075;-68
2023/02/05 09:17:37;;;;;;;12.23;7.38;;;;;;;;;;10332558;28;20080;-68
2023/02/05 09:22:35;;;;;;;13.30;10.05;;;;;;;;;;10331340;28;20512;-68
2023/02/05 09:27:34;;;;;;;10.95;7.65;;;;;;;;;;10332742;28;20067;-68
2023/02/05 09:32:33;;;;;;;6.57;5.82;;;;;;;;;;10334733;28;20092;-68
2023/02/05 09:37:31;;;;;;;8.60;6.13;;;;;;;;;;10332261;28;20502;-67
2023/02/05 09:42:33;;;;;;;8.93;7.60;;;;;;;;;;10330555;28;20088;-67
2023/02/05 09:47:36;;;;;;;9.90;7.30;;;;;;;;;;10329209;28;20369;-67
2023/02/05 09:52:36;;;;;;;14.30;8.15;;;;;;;;;;10325616;28;20071;-67
2023/02/05 09:57:35;;;;;;;12.93;9.25;;;;;;;;;;10330575;28;20071;-67
2023/02/05 10:02:39;;;;;;;7.40;6.00;;;;;;;;;;10328872;28;20065;-67
2023/02/05 10:07:42;;;;;;;7.80;6.65;;;;;;;;;;10323234;28;20083;-69
2023/02/05 10:12:47;;;;;;;10.27;8.27;;;;;;;;;;10338864;28;20087;-68
2023/02/05 10:17:52;;;;;;;12.23;9.65;;;;;;;;;;10337120;28;20473;-68
2023/02/05 10:22:56;;;;;;;15.00;7.93;;;;;;;;;;10332036;28;20287;-68
2023/02/05 10:28:00;;;;;;;12.77;9.30;;;;;;;;;;10340180;28;20068;-69
2023/02/05 10:33:00;;;;;;;8.52;6.40;;;;;;;;;;10344825;28;20086;-68
2023/02/05 10:37:58;;;;;;;11.88;7.55;;;;;;;;;;10338978;28;20082;-69
2023/02/05 10:43:00;;;;;;;22.88;10.73;;;;;;;;;;10328030;28;20064;-67
2023/02/05 10:48:08;;;;;;;21.45;11.90;;;;;;;;;;10347067;28;20536;-68
2023/02/05 10:53:06;;;;;;;16.02;9.40;;;;;;;;;;10332959;28;20067;-68
2023/02/05 10:58:14;;;;;;;17.17;9.00;;;;;;;;;;10337637;28;20060;-68
2023/02/05 11:03:16;;;;;;;15.77;8.88;;;;;;;;;;10339180;28;20075;-68
2023/02/05 11:08:29;;;;;;;19.55;11.02;;;;;;;;;;10336023;28;20494;-68
2023/02/05 11:13:28;;;;;;;17.40;10.48;;;;;;;;;;10334980;28;20102;-68
2023/02/05 11:18:29;;;;;;;12.75;7.20;;;;;;;;;;10337962;28;20082;-68
2023/02/05 11:23:29;;;;;;;12.38;6.97;;;;;;;;;;10338456;28;20075;-69
2023/02/05 11:28:28;;;;;;;7.72;5.90;;;;;;;;;;10317511;28;20051;-69
2023/02/05 11:33:31;;;;;;;27.10;16.85;;;;;;;;;;10337056;28;20087;-69
2023/02/05 11:38:34;;;;;;;13.07;8.65;;;;;;;;;;10338596;28;20067;-69
2023/02/05 11:43:34;;;;;;;9.52;6.65;;;;;;;;;;10337529;28;20490;-69
2023/02/05 11:48:36;;;;;;;12.05;8.10;;;;;;;;;;10338148;28;20074;-69
2023/02/05 11:53:36;;;;;;;16.38;11.07;;;;;;;;;;10348172;28;20067;-69
2023/02/05 11:58:34;;;;;;;14.77;8.43;;;;;;;;;;10331841;28;20079;-68
2023/02/05 12:03:36;;;;;;;15.90;11.07;;;;;;;;;;10328503;28;20068;-68
2023/02/05 12:08:38;;;;;;;18.90;13.38;;;;;;;;;;10321412;28;20079;-68
2023/02/05 12:13:43;;;;;;;11.60;8.68;;;;;;;;;;10331078;28;20598;-69
2023/02/05 12:18:48;;;;;;;29.95;15.48;;;;;;;;;;10312743;28;20076;-68
2023/02/05 12:24:04;;;;;;;19.65;9.88;;;;;;;;;;10313861;28;20326;-68
2023/02/05 12:29:11;;;;;;;23.15;10.35;;;;;;;;;;10332617;28;20083;-69
2023/02/05 12:34:16;;;;;;;20.05;12.27;;;;;;;;;;10330233;28;20076;-69
2023/02/05 12:39:22;;;;;;;14.15;10.98;;;;;;;;;;10331290;28;20075;-67
2023/02/05 12:44:27;;;;;;;17.40;11.45;;;;;;;;;;10335008;28;20064;-68
2023/02/05 12:49:41;;;;;;;10.40;8.07;;;;;;;;;;10331080;28;20064;-68
2023/02/05 12:54:48;;;;;;;22.88;16.15;;;;;;;;;;10331967;28;20080;-67
2023/02/05 12:59:48;;;;;;;11.97;7.83;;;;;;;;;;10331880;28;20080;-68
2023/02/05 13:04:51;;;;;;;19.42;13.20;;;;;;;;;;10332841;28;20067;-68
2023/02/05 13:09:51;;;;;;;14.77;10.05;;;;;;;;;;10322478;28;20068;-69
2023/02/05 13:14:54;;;;;;;8.95;7.75;;;;;;;;;;10330069;28;20082;-69
2023/02/05 13:19:57;;;;;;;19.00;12.88;;;;;;;;;;10329668;28;20076;-69
2023/02/05 13:30:15;;;;;;;81.03;50.80;;;;;;;;;;10328799;28;20064;-69
2023/02/05 13:35:15;;;;;;;18.35;12.18;;;;;;;;;;10293246;28;1104052;-69
2023/02/05 13:40:29;;;;;;;15.93;12.40;;;;;;;;;;10337387;28;20110;-68
2023/02/05 13:45:57;;;;;;;8.60;7.60;;;;;;;;;;10333930;28;20074;-69
2023/02/05 13:51:10;;;;;;;28.25;15.60;;;;;;;;;;10331026;28;20080;-68
2023/02/05 13:56:23;;;;;;;25.42;15.05;;;;;;;;;;10328161;28;20076;-68
2023/02/05 14:01:25;;;;;;;31.42;18.42;;;;;;;;;;10313413;28;20114;-68
2023/02/05 14:06:27;;;;;;;29.60;18.38;;;;;;;;;;10331052;28;20501;-68
2023/02/05 14:11:25;;;;;;;31.48;19.73;;;;;;;;;;10329612;28;20477;-69
2023/02/05 14:16:35;;;;;;;57.35;34.78;;;;;;;;;;10325239;28;20458;-69
2023/02/05 14:21:56;;;;;;;19.48;13.93;;;;;;;;;;10329051;28;20082;-68
2023/02/05 14:26:56;;;;;;;72.43;33.30;;;;;;;;;;10332380;28;20075;-69
2023/02/05 14:31:56;;;;;;;73.30;39.53;;;;;;;;;;10325773;28;20087;-69
2023/02/05 14:36:54;;;;;;;23.30;15.07;;;;;;;;;;10329413;28;20063;-69
2023/02/05 14:41:54;;;;;;;15.82;12.05;;;;;;;;;;10324891;28;20068;-69
2023/02/05 14:46:59;;;;;;;48.95;29.45;;;;;;;;;;10334976;28;20063;-68
2023/02/05 14:51:59;;;;;;;30.27;20.50;;;;;;;;;;10327239;28;20079;-69
2023/02/05 14:57:12;;;;;;;44.20;26.25;;;;;;;;;;10324691;28;21089;-69
2023/02/05 15:02:29;;;;;;;54.30;33.60;;;;;;;;;;10326955;28;20094;-69
2023/02/05 15:07:29;;;;;;;48.92;26.02;;;;;;;;;;10328889;28;20075;-69
2023/02/05 15:12:35;;;;;;;39.72;23.58;;;;;;;;;;10329438;28;20080;-69
2023/02/05 15:17:51;;;;;;;29.60;18.75;;;;;;;;;;10330933;28;20076;-69
2023/02/05 15:22:53;;;;;;;11.90;9.20;;;;;;;;;;10335488;28;20520;-70
2023/02/05 15:27:54;;;;;;;15.73;11.10;;;;;;;;;;10326793;28;20469;-69
2023/02/05 15:32:54;;;;;;;51.95;29.67;;;;;;;;;;10346050;28;20182;-69
2023/02/05 15:37:55;;;;;;;21.33;12.85;;;;;;;;;;10316564;28;20091;-70
2023/02/05 15:42:57;;;;;;;69.28;34.60;;;;;;;;;;10341708;28;20082;-70
2023/02/05 15:47:59;;;;;;;28.88;18.90;;;;;;;;;;10337834;28;20492;-69
2023/02/05 15:52:59;;;;;;;62.75;31.15;;;;;;;;;;10345417;28;20075;-69
2023/02/05 15:58:00;;;;;;;28.92;17.05;;;;;;;;;;10347545;28;20105;-69
2023/02/05 16:02:59;;;;;;;36.80;22.70;;;;;;;;;;10337623;28;20469;-70
2023/02/05 16:08:01;;;;;;;49.83;30.45;;;;;;;;;;10339462;28;20472;-70
2023/02/05 16:13:00;;;;;;;49.95;28.75;;;;;;;;;;10339485;28;20071;-69
2023/02/05 16:17:59;;;;;;;34.55;22.30;;;;;;;;;;10345223;28;20517;-69
2023/02/05 16:22:59;;;;;;;43.35;29.50;;;;;;;;;;10347156;28;20071;-69
2023/02/05 16:27:59;;;;;;;35.65;25.80;;;;;;;;;;10336846;28;20067;-69
2023/02/05 16:32:59;;;;;;;25.95;19.50;;;;;;;;;;10333415;28;20080;-69
2023/02/05 16:38:00;;;;;;;35.55;24.40;;;;;;;;;;10332901;28;20480;-70
2023/02/05 16:42:58;;;;;;;17.73;12.75;;;;;;;;;;10341829;28;20059;-70
2023/02/05 16:48:14;;;;;;;19.20;13.07;;;;;;;;;;10330350;28;20087;-70
2023/02/05 16:53:16;;;;;;;32.53;23.17;;;;;;;;;;10335334;28;20725;-70
2023/02/05 16:58:18;;;;;;;31.42;23.75;;;;;;;;;;10342934;28;20536;-70
2023/02/05 17:03:18;;;;;;;25.02;17.27;;;;;;;;;;10334608;28;20067;-70
2023/02/05 17:08:27;;;;;;;46.92;29.92;;;;;;;;;;10339805;28;20067;-70
2023/02/05 17:13:30;;;;;;;56.53;32.53;;;;;;;;;;10333485;28;20076;-69
2023/02/05 17:18:30;;;;;;;22.85;13.90;;;;;;;;;;10334257;28;20544;-70
2023/02/05 17:23:30;;;;;;;36.15;21.08;;;;;;;;;;10339704;28;20079;-69
2023/02/05 17:28:28;;;;;;;50.08;31.05;;;;;;;;;;10329755;28;20595;-67
2023/02/05 17:33:28;;;;;;;19.35;15.18;;;;;;;;;;10339360;28;20075;-70
2023/02/05 17:38:26;;;;;;;14.02;11.35;;;;;;;;;;10336595;28;20059;-70
2023/02/05 17:43:26;;;;;;;16.33;10.88;;;;;;;;;;10330521;28;20076;-70
2023/02/05 17:48:26;;;;;;;22.67;12.60;;;;;;;;;;10327716;28;20789;-70
2023/02/05 17:53:25;;;;;;;37.55;23.13;;;;;;;;;;10343940;28;20079;-69
2023/02/05 17:58:23;;;;;;;28.88;18.00;;;;;;;;;;10339171;28;20437;-70
2023/02/05 18:03:23;;;;;;;18.50;12.55;;;;;;;;;;10340739;28;20056;-70
2023/02/05 18:08:23;;;;;;;25.30;17.52;;;;;;;;;;10334373;28;20067;-70
2023/02/05 18:13:24;;;;;;;25.00;17.38;;;;;;;;;;10340439;28;20110;-70
2023/02/05 18:18:23;;;;;;;31.45;19.95;;;;;;;;;;10334863;28;20528;-70
2023/02/05 18:23:21;;;;;;;15.57;9.93;;;;;;;;;;10335412;28;20517;-70
2023/02/05 18:28:27;;;;;;;49.40;27.37;;;;;;;;;;10309502;28;20461;-70
2023/02/05 18:33:26;;;;;;;91.80;43.33;;;;;;;;;;10327834;28;20378;-70
2023/02/05 18:38:24;;;;;;;22.40;13.55;;;;;;;;;;10327740;28;20074;-70
2023/02/05 18:43:23;;;;;;;12.38;9.60;;;;;;;;;;10337998;28;20540;-70
2023/02/05 18:48:21;;;;;;;42.33;26.73;;;;;;;;;;10328593;28;20065;-70
2023/02/05 18:53:26;;;;;;;25.60;16.15;;;;;;;;;;10327047;28;20078;-71
2023/02/05 18:58:26;;;;;;;41.78;22.35;;;;;;;;;;10332461;28;20078;-70
2023/02/05 19:03:25;;;;;;;34.53;20.23;;;;;;;;;;10333606;28;20059;-70
2023/02/05 19:08:24;;;;;;;32.13;19.52;;;;;;;;;;10341419;28;20067;-70
2023/02/05 19:13:23;;;;;;;56.60;30.48;;;;;;;;;;10340000;28;20080;-70
2023/02/05 19:18:22;;;;;;;35.40;22.35;;;;;;;;;;10343400;28;20094;-69
2023/02/05 19:23:20;;;;;;;45.97;27.85;;;;;;;;;;10336883;28;20071;-70
2023/02/05 19:28:20;;;;;;;71.18;37.40;;;;;;;;;;10338660;28;20484;-69
2023/02/05 19:33:18;;;;;;;42.63;28.60;;;;;;;;;;10338442;28;20075;-68
2023/02/05 19:38:17;;;;;;;51.38;28.02;;;;;;;;;;10335189;28;20071;-68
2023/02/05 19:43:16;;;;;;;81.38;40.30;;;;;;;;;;10333939;28;20079;-69
2023/02/05 19:48:16;;;;;;;44.70;27.88;;;;;;;;;;10337580;28;20080;-69
2023/02/05 19:53:15;;;;;;;42.42;29.23;;;;;;;;;;10338304;28;20060;-69
2023/02/05 19:58:13;;;;;;;105.88;62.75;;;;;;;;;;10331481;28;20086;-69
2023/02/05 20:03:12;;;;;;;74.90;51.42;;;;;;;;;;10341395;28;20071;-69
2023/02/05 20:08:11;;;;;;;67.22;41.92;;;;;;;;;;10336670;28;20060;-68
2023/02/05 20:13:10;;;;;;;46.13;27.88;;;;;;;;;;10336670;28;20072;-70
2023/02/05 20:18:08;;;;;;;41.38;27.38;;;;;;;;;;10334814;28;20068;-69
2023/02/05 20:23:07;;;;;;;63.85;36.40;;;;;;;;;;10337935;28;20072;-69
2023/02/05 20:28:06;;;;;;;91.75;42.72;;;;;;;;;;10340252;28;20090;-70
2023/02/05 20:33:05;;;;;;;43.63;25.33;;;;;;;;;;10335589;28;20080;-69
2023/02/05 20:38:03;;;;;;;87.55;42.40;;;;;;;;;;10335799;28;20080;-70
2023/02/05 20:43:03;;;;;;;85.32;47.45;;;;;;;;;;10327625;28;20068;-68
2023/02/05 20:48:03;;;;;;;47.60;27.45;;;;;;;;;;10332064;28;20072;-69
2023/02/05 20:53:01;;;;;;;54.25;35.67;;;;;;;;;;10331349;28;20082;-69
2023/02/05 20:57:59;;;;;;;43.00;38.40;;;;;;;;;;10338540;28;20071;-69
2023/02/05 21:02:58;;;;;;;29.33;23.50;;;;;;;;;;10332010;28;20071;-69
2023/02/05 21:07:58;;;;;;;15.63;13.98;;;;;;;;;;10324222;28;20060;-68
2023/02/05 21:12:56;;;;;;;68.20;46.20;;;;;;;;;;10335458;28;20067;-68
2023/02/05 21:17:54;;;;;;;34.88;27.65;;;;;;;;;;10330605;28;20071;-69
2023/02/05 21:22:52;;;;;;;29.73;21.73;;;;;;;;;;10331534;28;20478;-69
2023/02/05 21:27:52;;;;;;;46.85;31.58;;;;;;;;;;10314223;28;20072;-68
2023/02/05 21:32:51;;;;;;;43.83;29.48;;;;;;;;;;10332198;28;20086;-68
2023/02/05 21:37:49;;;;;;;30.60;22.55;;;;;;;;;;10331355;28;20540;-69
2023/02/05 21:42:48;;;;;;;29.20;19.75;;;;;;;;;;10328911;28;20075;-69
2023/02/05 21:47:47;;;;;;;23.77;15.40;;;;;;;;;;10327158;28;20099;-69
2023/02/05 21:52:45;;;;;;;45.75;18.67;;;;;;;;;;10329290;28;20080;-69
2023/02/05 21:57:43;;;;;;;29.48;20.08;;;;;;;;;;10325172;28;20072;-68
2023/02/05 22:02:42;;;;;;;17.48;14.20;;;;;;;;;;10323526;28;20497;-69
2023/02/05 22:07:41;;;;;;;47.65;29.42;;;;;;;;;;10323387;28;20064;-69
2023/02/05 22:12:39;;;;;;;28.38;19.38;;;;;;;;;;10324773;28;20107;-69
2023/02/05 22:17:37;;;;;;;26.23;18.83;;;;;;;;;;10333316;28;20509;-69
2023/02/05 22:22:36;;;;;;;29.90;20.65;;;;;;;;;;10329772;28;20067;-69
2023/02/05 22:27:35;;;;;;;21.05;16.52;;;;;;;;;;10330812;28;20080;-68
2023/02/05 22:32:33;;;;;;;25.83;18.63;;;;;;;;;;10324455;28;20074;-69
2023/02/05 22:37:31;;;;;;;42.53;26.58;;;;;;;;;;10330071;28;20504;-69
2023/02/05 22:42:32;;;;;;;22.10;16.92;;;;;;;;;;10338917;28;20063;-68
2023/02/05 22:47:32;;;;;;;24.42;17.27;;;;;;;;;;10337947;28;20060;-69
2023/02/05 22:52:30;;;;;;;43.42;26.77;;;;;;;;;;10341456;28;20071;-69
2023/02/05 22:57:28;;;;;;;23.80;16.13;;;;;;;;;;10338333;28;20080;-69
2023/02/05 23:02:26;;;;;;;21.60;14.23;;;;;;;;;;10339222;28;20462;-69
2023/02/05 23:07:26;;;;;;;27.05;15.82;;;;;;;;;;10336125;28;20119;-69
2023/02/05 23:12:24;;;;;;;12.05;10.45;;;;;;;;;;10339563;28;20064;-69
2023/02/05 23:17:22;;;;;;;12.57;9.90;;;;;;;;;;10337262;28;20076;-69
2023/02/05 23:22:20;;;;;;;8.15;7.35;;;;;;;;;;10337304;28;20064;-69
2023/02/05 23:27:20;;;;;;;9.80;7.63;;;;;;;;;;10338767;28;20068;-69
2023/02/05 23:32:18;;;;;;;19.65;13.52;;;;;;;;;;10336180;28;20485;-69
2023/02/05 23:37:16;;;;;;;13.23;11.35;;;;;;;;;;10335743;28;20075;-69
2023/02/05 23:42:17;;;;;;;31.35;21.23;;;;;;;;;;10331814;28;20465;-69
2023/02/05 23:47:17;;;;;;;12.13;9.63;;;;;;;;;;10337774;28;20076;-69
2023/02/05 23:52:15;;;;;;;12.32;9.32;;;;;;;;;;10334950;28;20075;-69
2023/02/05 23:57:13;;;;;;;12.07;9.65;;;;;;;;;;10333635;28;20075;-67
